Orbital elements of SL-12 R/B(2)
| Launched | 24 January 1996 |
| Flight ended | – |
| Launch site | Tyuratam Missile and Space Center, Kazakhstan (Also known as Baikonur Cosmodrome) |
| Owner | Commonwealth of Independent States (former USSR) |
| NORAD ID | 23778 |
| Date fetched |
Epoch osculation |
Inc. [°] |
Ecc. | RA asc node [hr] |
Arg Peri. [°] |
Mean anom [°] |
Mean motion [rev/day] |
Abs. mag |
| Date fetched |
Epoch osculation |
Inc. [°] |
Ecc. | RA asc node [hr] |
Arg Peri. [°] |
Mean anom [°] |
Mean motion [rev/day] |
Abs. mag |
| 2026 May 05 17:57 | 2026 May 05 11:20:03 | 15.3253 | 0.00123 | 23.8470 | 194.1409 | 172.9383 | 0.97673 | – |
| 2026 May 04 17:57 | 2026 Apr 29 20:23:47 | 15.3252 | 0.00123 | 23.8497 | 193.9121 | 172.9383 | 0.97673 | – |
| 2026 May 03 17:57 | 2026 Apr 29 20:23:47 | 15.3252 | 0.00123 | 23.8497 | 193.9121 | 172.9383 | 0.97673 | – |
| 2026 May 02 17:57 | 2026 Apr 29 20:23:47 | 15.3252 | 0.00123 | 23.8497 | 193.9121 | 172.9383 | 0.97673 | – |
| 2026 May 01 17:56 | 2026 Apr 29 20:23:47 | 15.3252 | 0.00123 | 23.8497 | 193.9121 | 172.9383 | 0.97673 | – |
| 2026 Apr 30 17:56 | 2026 Apr 29 20:23:47 | 15.3252 | 0.00123 | 23.8497 | 193.9121 | 172.9383 | 0.97673 | – |
| 2026 Apr 29 17:57 | 2026 Apr 24 03:45:20 | 15.3249 | 0.00123 | 23.8525 | 193.5603 | 172.9383 | 0.97673 | – |
| 2026 Apr 28 17:56 | 2026 Apr 24 03:45:20 | 15.3249 | 0.00123 | 23.8525 | 193.5603 | 172.9383 | 0.97673 | – |
| 2026 Apr 27 17:58 | 2026 Apr 24 03:45:20 | 15.3249 | 0.00123 | 23.8525 | 193.5603 | 172.9383 | 0.97673 | – |
| 2026 Apr 26 17:58 | 2026 Apr 24 03:45:20 | 15.3249 | 0.00123 | 23.8525 | 193.5603 | 172.9383 | 0.97673 | – |
| 2026 Apr 25 17:58 | 2026 Apr 24 03:45:20 | 15.3249 | 0.00123 | 23.8525 | 193.5603 | 172.9383 | 0.97673 | – |
| 2026 Apr 24 17:59 | 2026 Apr 24 03:45:20 | 15.3249 | 0.00123 | 23.8525 | 193.5603 | 172.9383 | 0.97673 | – |
| 2026 Apr 23 17:57 | 2026 Apr 18 14:01:38 | 15.3247 | 0.00122 | 23.8552 | 193.6066 | 172.9383 | 0.97673 | – |
| 2026 Apr 22 17:57 | 2026 Apr 18 14:01:38 | 15.3247 | 0.00122 | 23.8552 | 193.6066 | 172.9383 | 0.97673 | – |
| 2026 Apr 21 17:57 | 2026 Apr 18 14:01:38 | 15.3247 | 0.00122 | 23.8552 | 193.6066 | 172.9383 | 0.97673 | – |
| 2026 Apr 20 17:57 | 2026 Apr 18 14:01:38 | 15.3247 | 0.00122 | 23.8552 | 193.6066 | 172.9383 | 0.97673 | – |
| 2026 Apr 19 17:58 | 2026 Apr 18 14:01:38 | 15.3247 | 0.00122 | 23.8552 | 193.6066 | 172.9383 | 0.97673 | – |
| 2026 Apr 18 17:56 | 2026 Apr 12 10:11:38 | 15.3244 | 0.00122 | 23.8582 | 194.5947 | 172.9383 | 0.97673 | – |
| 2026 Apr 16 17:57 | 2026 Apr 12 10:11:38 | 15.3244 | 0.00122 | 23.8582 | 194.5947 | 172.9383 | 0.97673 | – |
| 2026 Apr 14 17:57 | 2026 Apr 12 10:11:38 | 15.3244 | 0.00122 | 23.8582 | 194.5947 | 172.9383 | 0.97673 | – |
| 2026 Apr 13 17:57 | 2026 Apr 12 10:11:38 | 15.3244 | 0.00122 | 23.8582 | 194.5947 | 172.9383 | 0.97673 | – |
| 2026 Apr 12 17:57 | 2026 Apr 08 07:56:38 | 15.3242 | 0.00123 | 23.8602 | 194.6840 | 172.9383 | 0.97673 | – |
| 2026 Apr 11 17:57 | 2026 Apr 08 07:56:38 | 15.3242 | 0.00123 | 23.8602 | 194.6840 | 172.9383 | 0.97673 | – |
| 2026 Apr 10 17:58 | 2026 Apr 08 07:56:38 | 15.3242 | 0.00123 | 23.8602 | 194.6840 | 172.9383 | 0.97673 | – |
| 2026 Apr 09 18:01 | 2026 Apr 08 07:56:38 | 15.3242 | 0.00123 | 23.8602 | 194.6840 | 172.9383 | 0.97673 | – |
| 2026 Apr 08 17:57 | 2026 Apr 08 07:56:38 | 15.3242 | 0.00123 | 23.8602 | 194.6840 | 172.9383 | 0.97673 | – |